createdAt,value
2022-07-26T00:02:05.519Z,18.71
2022-07-26T00:07:09.152Z,18.75
2022-07-26T00:12:12.393Z,18.80
2022-07-26T00:17:16.047Z,18.80
2022-07-26T00:22:40.172Z,18.77
2022-07-26T00:27:44.286Z,18.84
2022-07-26T00:32:48.520Z,18.91
2022-07-26T00:37:53.571Z,18.99
2022-07-26T00:42:57.083Z,19.00
2022-07-26T00:48:00.395Z,18.94
2022-07-26T00:53:03.573Z,18.90
2022-07-26T00:58:07.341Z,18.86
2022-07-26T01:03:10.427Z,18.95
2022-07-26T01:08:14.001Z,18.96
2022-07-26T01:13:17.229Z,18.93
2022-07-26T01:18:20.869Z,18.93
2022-07-26T01:23:25.937Z,18.96
2022-07-26T01:28:30.152Z,18.94
2022-07-26T01:33:32.956Z,18.91
2022-07-26T01:38:37.515Z,18.96
2022-07-26T01:43:52.669Z,19.07
2022-07-26T01:48:56.046Z,19.24
2022-07-26T01:53:59.467Z,19.28
2022-07-26T01:59:02.326Z,19.25
2022-07-26T02:04:05.902Z,19.28
2022-07-26T02:09:12.624Z,19.27
2022-07-26T02:14:25.706Z,19.20
2022-07-26T02:19:31.489Z,19.07
2022-07-26T02:24:34.935Z,19.08
2022-07-26T02:29:38.635Z,19.06
2022-07-26T02:34:41.493Z,19.12
2022-07-26T02:39:44.772Z,19.25
2022-07-26T02:44:47.987Z,19.18
2022-07-26T02:49:50.965Z,19.22
2022-07-26T02:54:54.229Z,19.16
2022-07-26T02:59:57.092Z,19.19
2022-07-26T03:05:00.339Z,19.22
2022-07-26T03:10:03.493Z,19.25
2022-07-26T03:15:06.824Z,19.20
2022-07-26T03:20:10.067Z,19.20
2022-07-26T03:25:13.412Z,19.20
2022-07-26T03:30:16.562Z,19.22
2022-07-26T03:35:28.822Z,19.20
2022-07-26T03:40:32.091Z,19.27
2022-07-26T03:45:35.537Z,19.21
2022-07-26T03:50:38.905Z,19.19
2022-07-26T03:55:59.864Z,19.29
2022-07-26T04:01:02.632Z,19.28
2022-07-26T04:06:05.495Z,19.18
2022-07-26T04:11:08.632Z,19.04
2022-07-26T04:16:13.137Z,19.06
2022-07-26T04:21:16.641Z,19.11
2022-07-26T04:26:20.225Z,19.16
2022-07-26T04:31:23.103Z,19.19
2022-07-26T04:36:26.062Z,19.36
2022-07-26T04:41:28.839Z,19.50
2022-07-26T04:46:31.975Z,19.43
2022-07-26T04:51:35.253Z,19.49
2022-07-26T04:56:38.837Z,19.42
2022-07-26T05:01:42.280Z,19.35
2022-07-26T05:06:45.715Z,19.51
2022-07-26T05:11:49.328Z,20.34
2022-07-26T05:16:52.690Z,20.76
2022-07-26T05:21:56.479Z,20.84
2022-07-26T05:27:00.280Z,21.00
2022-07-26T05:32:05.053Z,20.99
2022-07-26T05:37:08.338Z,20.85
2022-07-26T05:42:12.481Z,20.00
2022-07-26T05:47:16.690Z,19.67
2022-07-26T05:52:20.946Z,19.73
2022-07-26T05:57:24.606Z,19.74
2022-07-26T06:02:27.902Z,19.61
2022-07-26T06:07:31.912Z,19.43
2022-07-26T06:12:35.207Z,19.35
2022-07-26T06:17:38.753Z,19.47
2022-07-26T06:22:42.106Z,19.63
2022-07-26T06:27:45.534Z,19.79
2022-07-26T06:32:48.876Z,19.87
2022-07-26T06:37:52.070Z,19.94
2022-07-26T06:42:55.218Z,19.78
2022-07-26T06:47:58.750Z,19.64
2022-07-26T06:53:01.776Z,19.39
2022-07-26T06:58:04.628Z,19.34
2022-07-26T07:03:07.731Z,19.35
2022-07-26T07:08:11.037Z,19.45
2022-07-26T07:13:15.914Z,19.51
2022-07-26T07:18:19.048Z,19.40
2022-07-26T07:23:23.875Z,19.03
2022-07-26T07:28:27.187Z,18.75
2022-07-26T07:33:36.492Z,18.10
2022-07-26T07:38:47.070Z,17.74
2022-07-26T07:43:50.162Z,17.62
2022-07-26T07:48:54.340Z,17.78
2022-07-26T07:53:58.632Z,18.10
2022-07-26T07:59:03.435Z,18.19
2022-07-26T08:04:06.855Z,18.65
2022-07-26T08:09:13.335Z,19.19
2022-07-26T08:14:17.389Z,19.62
2022-07-26T08:19:21.081Z,19.61
2022-07-26T08:24:25.795Z,19.37
2022-07-26T08:29:28.633Z,19.17
2022-07-26T08:34:31.824Z,18.96
2022-07-26T08:39:34.997Z,18.93
2022-07-26T08:44:38.798Z,18.70
2022-07-26T08:49:41.621Z,18.53
2022-07-26T08:54:45.399Z,18.75
2022-07-26T08:59:48.180Z,19.23
2022-07-26T09:04:51.343Z,19.60
2022-07-26T09:09:54.161Z,19.65
2022-07-26T09:14:57.783Z,19.88
2022-07-26T09:20:00.660Z,20.35
2022-07-26T09:25:03.460Z,20.58
2022-07-26T09:30:06.659Z,21.15
2022-07-26T09:35:24.198Z,21.49
2022-07-26T09:40:32.660Z,21.93
2022-07-26T09:45:35.435Z,21.91
2022-07-26T09:50:38.277Z,22.02
2022-07-26T09:55:44.861Z,22.55
2022-07-26T10:00:49.185Z,22.62
2022-07-26T10:05:52.051Z,22.89
2022-07-26T10:10:56.075Z,23.83
2022-07-26T10:15:59.244Z,24.52
2022-07-26T10:21:04.230Z,24.99
2022-07-26T10:26:07.211Z,24.85
2022-07-26T10:31:13.587Z,24.90
2022-07-26T10:36:16.388Z,24.91
2022-07-26T10:41:19.695Z,25.60
2022-07-26T10:46:23.744Z,26.03
2022-07-26T10:51:28.794Z,24.98
2022-07-26T10:56:33.693Z,25.34
2022-07-26T11:01:38.284Z,25.34
2022-07-26T11:06:42.480Z,26.82
2022-07-26T11:11:47.509Z,26.76
2022-07-26T11:16:51.403Z,27.37
2022-07-26T11:21:56.069Z,27.09
2022-07-26T11:26:59.537Z,26.66
2022-07-26T11:32:13.035Z,26.54
2022-07-26T11:37:21.105Z,26.85
2022-07-26T11:42:25.319Z,26.88
2022-07-26T11:47:28.604Z,26.30
2022-07-26T11:52:32.561Z,25.97
2022-07-26T11:57:35.983Z,25.32
2022-07-26T12:02:39.230Z,25.14
2022-07-26T12:07:42.504Z,25.21
2022-07-26T12:12:46.221Z,24.98
2022-07-26T12:17:50.128Z,25.43
2022-07-26T12:22:54.738Z,25.60
2022-07-26T12:27:58.536Z,25.78
2022-07-26T12:33:02.575Z,25.86
2022-07-26T12:38:08.521Z,26.17
2022-07-26T12:43:12.717Z,26.25
2022-07-26T12:48:16.490Z,26.10
2022-07-26T12:53:20.240Z,26.35
2022-07-26T12:58:23.586Z,26.65
2022-07-26T13:03:28.846Z,26.96
2022-07-26T13:08:32.682Z,26.29
2022-07-26T13:13:36.407Z,26.67
2022-07-26T13:18:40.171Z,27.94
2022-07-26T13:23:46.108Z,28.16
2022-07-26T13:28:50.062Z,27.95
2022-07-26T13:33:53.770Z,27.72
2022-07-26T13:38:57.300Z,27.41
2022-07-26T13:44:01.115Z,27.38
2022-07-26T13:49:04.881Z,27.18
2022-07-26T13:54:08.735Z,26.70
2022-07-26T13:59:12.886Z,26.87
2022-07-26T14:04:16.519Z,26.64
2022-07-26T14:09:20.779Z,26.24
2022-07-26T14:14:24.690Z,25.68
2022-07-26T14:19:27.914Z,25.63
2022-07-26T14:24:31.252Z,25.26
2022-07-26T14:29:34.750Z,24.89
2022-07-26T14:34:37.896Z,24.85
2022-07-26T14:39:43.102Z,25.02
2022-07-26T14:44:46.711Z,25.33
2022-07-26T14:49:49.554Z,25.73
2022-07-26T14:54:52.886Z,26.04
2022-07-26T14:59:56.283Z,25.98
2022-07-26T15:04:59.444Z,25.81
2022-07-26T15:10:03.117Z,25.29
2022-07-26T15:15:06.560Z,25.31
2022-07-26T15:20:09.741Z,25.47
2022-07-26T15:25:12.892Z,26.03
2022-07-26T15:30:16.276Z,26.40
2022-07-26T15:35:23.478Z,26.19
2022-07-26T15:40:26.703Z,26.23
2022-07-26T15:45:30.185Z,26.03
2022-07-26T15:50:36.531Z,25.99
2022-07-26T15:55:41.176Z,26.01
2022-07-26T16:00:44.032Z,26.19
2022-07-26T16:05:48.469Z,25.80
2022-07-26T16:10:52.238Z,25.47
2022-07-26T16:15:57.349Z,25.22
2022-07-26T16:21:00.585Z,25.14
2022-07-26T16:26:03.836Z,25.15
2022-07-26T16:31:07.160Z,25.10
2022-07-26T16:36:10.712Z,25.14
2022-07-26T16:41:14.113Z,25.05
2022-07-26T16:46:17.346Z,24.91
2022-07-26T16:51:24.110Z,24.91
2022-07-26T16:56:27.980Z,24.80
2022-07-26T17:01:30.828Z,24.57
2022-07-26T17:06:34.176Z,24.45
2022-07-26T17:11:38.293Z,24.51
2022-07-26T17:16:42.190Z,24.32
2022-07-26T17:21:46.312Z,24.25
2022-07-26T17:26:50.586Z,24.14
2022-07-26T17:31:55.055Z,23.98
2022-07-26T17:36:59.501Z,23.77
2022-07-26T17:42:03.332Z,23.69
2022-07-26T17:47:17.960Z,23.60
2022-07-26T17:52:31.321Z,23.42
2022-07-26T17:57:35.013Z,23.43
2022-07-26T18:02:38.660Z,23.38
2022-07-26T18:07:42.292Z,23.13
2022-07-26T18:12:45.802Z,23.10
2022-07-26T18:17:49.339Z,22.98
2022-07-26T18:22:53.765Z,23.02
2022-07-26T18:27:57.251Z,22.97
2022-07-26T18:33:01.235Z,22.88
2022-07-26T18:38:04.736Z,22.85
2022-07-26T18:43:08.832Z,22.81
2022-07-26T18:48:12.110Z,22.67
2022-07-26T18:53:17.616Z,22.58
2022-07-26T18:58:21.697Z,22.58
2022-07-26T19:03:34.697Z,22.59
2022-07-26T19:08:39.018Z,22.45
2022-07-26T19:13:42.506Z,22.24
2022-07-26T19:18:50.030Z,22.09
2022-07-26T19:23:53.754Z,22.05
2022-07-26T19:28:56.666Z,21.89
2022-07-26T19:33:59.978Z,21.88
2022-07-26T19:39:04.606Z,21.73
2022-07-26T19:44:07.435Z,21.70
2022-07-26T19:49:11.686Z,21.57
2022-07-26T19:54:22.040Z,21.57
2022-07-26T19:59:25.276Z,21.29
2022-07-26T20:04:29.354Z,21.09
2022-07-26T20:09:32.679Z,20.73
2022-07-26T20:14:35.890Z,20.68
2022-07-26T20:19:39.202Z,20.41
2022-07-26T20:24:43.132Z,20.24
2022-07-26T20:29:46.120Z,20.29
2022-07-26T20:34:49.156Z,20.11
2022-07-26T20:39:52.654Z,19.87
2022-07-26T20:44:56.350Z,19.74
2022-07-26T20:50:03.114Z,19.63
2022-07-26T20:55:07.878Z,19.60
2022-07-26T21:00:12.000Z,19.62
2022-07-26T21:05:15.613Z,19.60
2022-07-26T21:10:18.856Z,19.69
2022-07-26T21:15:24.239Z,19.71
2022-07-26T21:20:27.476Z,19.83
2022-07-26T21:25:30.688Z,20.08
2022-07-26T21:30:33.983Z,20.49
2022-07-26T21:35:38.383Z,20.78
2022-07-26T21:40:41.639Z,20.62
2022-07-26T21:45:45.021Z,20.67
2022-07-26T21:50:48.325Z,20.41
2022-07-26T21:55:51.572Z,20.14
2022-07-26T22:01:03.322Z,20.03
2022-07-26T22:06:10.295Z,19.95
2022-07-26T22:11:14.550Z,19.89
2022-07-26T22:16:19.480Z,19.95
2022-07-26T22:21:22.941Z,19.84
2022-07-26T22:26:31.197Z,19.75
2022-07-26T22:31:35.208Z,20.04
2022-07-26T22:36:43.538Z,20.20
2022-07-26T22:42:14.327Z,20.16
2022-07-26T22:47:16.220Z,19.83
2022-07-26T22:52:19.871Z,19.55
2022-07-26T22:57:23.568Z,19.40
2022-07-26T23:02:26.895Z,19.49
2022-07-26T23:07:30.634Z,19.51
2022-07-26T23:12:35.726Z,19.57
2022-07-26T23:17:39.020Z,19.40
2022-07-26T23:22:43.412Z,19.20
2022-07-26T23:27:48.587Z,19.29
2022-07-26T23:32:51.812Z,19.64
2022-07-26T23:37:55.077Z,19.83
2022-07-26T23:42:58.749Z,19.63
2022-07-26T23:48:02.746Z,19.39
2022-07-26T23:53:06.155Z,19.28
2022-07-26T23:58:12.056Z,19.09
